Time;durP1;ratioP1;P1;durP2;ratioP2;P2;SDS_P1;SDS_P2;PMS_P1;PMS_P2;Temp;Humidity;BMP_temperature;BMP_pressure;BME280_temperature;BME280_humidity;BME280_pressure;Samples;Min_cycle;Max_cycle;Signal;HPM_P1;HPM_P2
2022/08/10 00:01:20;;;;;;;4.85;2.20;;;;;;;22.25;40.81;99835.47;5149385;27;20051;-70
2022/08/10 00:03:48;;;;;;;5.10;3.45;;;;;;;22.31;40.81;99836.75;5149664;27;20314;-69
2022/08/10 00:06:15;;;;;;;5.25;2.60;;;;;;;22.22;40.93;99829.53;5149935;27;20055;-70
2022/08/10 00:08:42;;;;;;;6.15;2.40;;;;;;;21.94;41.11;99785.44;5150075;27;20061;-70
2022/08/10 00:11:10;;;;;;;5.32;2.75;;;;;;;22.26;40.72;99820.13;5149211;27;20051;-70
2022/08/10 00:13:37;;;;;;;5.90;3.25;;;;;;;22.26;41.06;99821.00;5149997;27;20095;-70
2022/08/10 00:16:05;;;;;;;4.30;2.30;;;;;;;22.22;40.87;99827.69;5149712;27;20360;-70
2022/08/10 00:18:34;;;;;;;4.07;2.20;;;;;;;22.21;41.30;99822.44;5149681;27;20427;-71
2022/08/10 00:21:01;;;;;;;4.00;2.60;;;;;;;22.20;41.09;99824.28;5149375;27;20352;-70
2022/08/10 00:23:29;;;;;;;4.55;2.00;;;;;;;22.21;41.12;99825.13;5149533;27;20307;-70
2022/08/10 00:25:56;;;;;;;3.22;2.20;;;;;;;22.19;41.04;99825.28;5149440;27;20115;-70
2022/08/10 00:28:23;;;;;;;4.78;2.22;;;;;;;22.18;41.51;99826.28;5149522;27;20237;-70
2022/08/10 00:30:50;;;;;;;4.32;2.13;;;;;;;22.00;41.56;99807.28;5148952;27;20100;-70
2022/08/10 00:33:19;;;;;;;3.30;1.95;;;;;;;22.13;41.38;99825.00;5148795;27;20053;-70
2022/08/10 00:35:48;;;;;;;5.80;2.30;;;;;;;22.13;41.72;99825.88;5148907;27;20055;-70
2022/08/10 00:38:17;;;;;;;4.75;2.10;;;;;;;22.08;41.49;99822.75;5148856;27;20062;-71
2022/08/10 00:40:44;;;;;;;4.30;2.60;;;;;;;22.05;41.87;99825.75;5149041;27;20055;-70
2022/08/10 00:43:12;;;;;;;4.70;2.83;;;;;;;22.01;41.67;99825.19;5127255;28;20055;-71
2022/08/10 00:45:39;;;;;;;4.82;3.42;;;;;;;22.01;41.40;99827.03;5128110;28;20357;-70
2022/08/10 00:48:06;;;;;;;5.30;3.55;;;;;;;22.04;41.66;99826.75;5128476;28;20040;-70
2022/08/10 00:50:36;;;;;;;5.38;3.08;;;;;;;22.04;41.47;99821.34;5128263;28;20097;-70
2022/08/10 00:53:05;;;;;;;5.90;3.00;;;;;;;22.01;41.90;99821.63;5128309;28;20063;-70
2022/08/10 00:55:32;;;;;;;6.18;2.60;;;;;;;21.92;41.89;99828.75;5128440;28;20084;-71
2022/08/10 00:58:00;;;;;;;6.65;2.40;;;;;;;21.96;41.85;99830.19;5128257;28;20113;-70
2022/08/10 01:00:28;;;;;;;4.15;2.85;;;;;;;21.80;41.79;99802.94;5128576;28;20047;-70
2022/08/10 01:02:55;;;;;;;5.20;2.50;;;;;;;21.74;41.92;99792.69;5127963;27;20097;-71
2022/08/10 01:05:23;;;;;;;5.72;2.17;;;;;;;21.59;41.56;99777.97;5128059;28;20222;-70
2022/08/10 01:08:07;;;;;;;4.03;2.30;;;;;;;21.70;42.24;99807.47;5128197;28;20167;-70
2022/08/10 01:10:43;;;;;;;3.08;1.95;;;;;;;21.80;42.25;99834.47;5127278;28;20047;-70
2022/08/10 01:13:17;;;;;;;4.43;2.67;;;;;;;21.55;42.41;99788.19;5127783;28;20055;-69
2022/08/10 01:15:55;;;;;;;6.32;4.28;;;;;;;21.44;42.60;99786.50;5127691;28;20092;-70
2022/08/10 01:18:30;;;;;;;7.28;4.40;;;;;;;21.65;42.93;99828.63;5127923;28;20104;-70
2022/08/10 01:21:21;;;;;;;8.90;6.68;;;;;;;21.66;42.75;99820.41;5127924;28;20311;-70
2022/08/10 01:24:08;;;;;;;7.32;3.85;;;;;;;21.22;42.88;99757.16;5127785;28;20093;-70
2022/08/10 01:27:17;;;;;;;5.10;3.05;;;;;;;21.62;42.87;99819.00;5128153;28;20080;-70
2022/08/10 01:30:07;;;;;;;3.60;2.53;;;;;;;21.61;43.11;99827.22;5119374;28;20188;-70
2022/08/10 01:32:46;;;;;;;4.90;3.03;;;;;;;21.61;43.10;99819.13;5127503;28;20055;-70
2022/08/10 01:35:18;;;;;;;4.47;2.53;;;;;;;21.58;42.52;99822.97;5127917;28;20256;-70
2022/08/10 01:37:57;;;;;;;5.65;2.58;;;;;;;21.59;42.85;99821.13;5126585;28;20085;-70
2022/08/10 01:40:28;;;;;;;4.70;2.30;;;;;;;21.58;42.75;99825.66;5127739;28;20052;-70
2022/08/10 01:42:58;;;;;;;5.00;2.53;;;;;;;21.56;42.75;99819.56;5131639;27;20059;-70
2022/08/10 01:45:29;;;;;;;4.90;2.67;;;;;;;21.54;43.14;99820.69;5148126;27;20081;-69
2022/08/10 01:50:46;;;;;;;3.45;2.42;;;;;;;21.39;42.94;99821.13;5148309;27;20039;-70
2022/08/10 20:00:16;;;;;;;7.68;6.45;;;;;;;23.92;35.20;99690.66;5144690;27;20128;-69
2022/08/10 20:02:52;;;;;;;8.05;5.47;;;;;;;23.96;35.24;99694.75;5122949;28;20283;-70
2022/08/10 20:05:27;;;;;;;9.63;7.35;;;;;;;23.90;35.30;99676.44;5105318;28;20048;-70
2022/08/10 20:07:59;;;;;;;10.05;8.85;;;;;;;24.15;35.49;99693.66;5123144;28;20315;-70
2022/08/10 20:10:35;;;;;;;7.47;5.28;;;;;;;24.18;35.44;99692.50;5122706;28;20056;-69
2022/08/10 20:13:08;;;;;;;6.00;4.80;;;;;;;24.25;35.63;99688.97;5122603;28;20056;-70
2022/08/10 20:15:41;;;;;;;10.10;5.88;;;;;;;24.30;35.56;99692.03;5122889;28;20056;-71
2022/08/10 20:18:12;;;;;;;7.88;6.95;;;;;;;24.30;35.39;99691.19;5123368;28;20133;-70
2022/08/10 20:20:45;;;;;;;9.80;7.85;;;;;;;24.18;35.09;99670.84;5122905;28;20089;-70
2022/08/10 20:23:17;;;;;;;9.30;7.13;;;;;;;24.34;35.44;99697.97;5122791;28;20316;-71
2022/08/10 20:25:48;;;;;;;6.38;5.22;;;;;;;24.22;35.53;99680.31;5122694;28;20181;-71
2022/08/10 20:28:21;;;;;;;6.18;5.03;;;;;;;24.28;35.09;99693.22;5122672;28;20261;-70
2022/08/10 20:30:52;;;;;;;6.28;4.60;;;;;;;24.34;35.52;99700.69;5122388;28;20113;-71
2022/08/10 20:33:27;;;;;;;5.32;4.78;;;;;;;24.32;35.49;99705.41;5122383;28;20105;-70
2022/08/10 20:36:02;;;;;;;6.75;4.90;;;;;;;24.28;35.30;99704.91;5122376;28;20077;-70
2022/08/10 20:38:33;;;;;;;6.50;5.00;;;;;;;24.28;35.43;99704.03;5122804;28;20085;-70
2022/08/10 20:41:12;;;;;;;6.80;6.07;;;;;;;24.32;35.62;99713.53;5122410;28;20189;-70
2022/08/10 20:43:52;;;;;;;8.07;6.47;;;;;;;24.23;35.50;99682.88;5122371;28;20312;-71
2022/08/10 20:46:29;;;;;;;8.07;7.03;;;;;;;24.12;35.29;99660.66;5122293;28;20261;-70
2022/08/10 20:49:01;;;;;;;6.78;5.35;;;;;;;24.37;35.72;99699.50;5122351;28;20055;-70
2022/08/10 20:51:36;;;;;;;7.80;6.50;;;;;;;24.36;35.47;99700.50;5122343;28;20101;-70
2022/08/10 20:54:08;;;;;;;6.97;6.15;;;;;;;24.33;35.60;99704.41;5104399;28;20057;-70
2022/08/10 20:56:47;;;;;;;11.32;9.70;;;;;;;24.11;35.51;99677.91;5122325;28;20223;-71
2022/08/10 20:59:36;;;;;;;10.07;7.43;;;;;;;24.15;35.44;99687.41;5121757;28;20044;-70
2022/08/10 21:02:26;;;;;;;7.22;5.82;;;;;;;24.23;35.56;99704.53;5122200;28;20089;-70
2022/08/10 21:05:01;;;;;;;9.57;7.68;;;;;;;24.21;35.75;99705.72;5121987;28;20205;-70
2022/08/10 21:07:48;;;;;;;7.68;6.55;;;;;;;24.23;35.63;99700.97;5122183;28;20063;-71
2022/08/10 21:10:27;;;;;;;7.90;5.40;;;;;;;24.20;35.80;99698.59;5116217;28;20189;-71
2022/08/10 21:13:17;;;;;;;7.40;5.20;;;;;;;24.19;35.66;99705.03;5108065;28;20346;-71
2022/08/10 21:16:01;;;;;;;6.80;5.40;;;;;;;24.15;35.74;99706.38;5108736;28;20039;-71
2022/08/10 21:18:48;;;;;;;6.30;5.60;;;;;;;23.98;35.80;99686.50;5108031;28;20059;-70
2022/08/10 21:21:32;;;;;;;9.57;6.60;;;;;;;24.09;36.04;99709.72;5108107;28;20115;-70
2022/08/10 21:24:04;;;;;;;7.75;6.40;;;;;;;24.09;36.18;99705.16;5107946;28;20109;-70
2022/08/10 22:51:50;;;;;;;7.97;4.72;;;;;;;23.39;37.65;99707.09;5106567;28;20040;-71
2022/08/10 22:59:59;;;;;;;4.45;3.58;;;;;;;23.33;37.94;99700.44;5106408;28;20262;-69
2022/08/10 23:02:30;;;;;;;3.95;3.00;;;;;;;23.33;37.71;99692.34;5106542;28;20093;-69
2022/08/10 23:05:03;;;;;;;4.85;3.30;;;;;;;23.28;38.00;99696.53;5106243;28;20254;-68
2022/08/10 23:07:35;;;;;;;6.38;3.30;;;;;;;23.17;38.05;99675.13;5106255;28;20129;-69
2022/08/10 23:10:06;;;;;;;4.45;3.00;;;;;;;23.19;38.13;99684.75;5105713;28;20248;-69
2022/08/10 23:12:39;;;;;;;4.53;3.10;;;;;;;23.17;37.88;99678.66;5106098;28;20103;-69
2022/08/10 23:20:53;;;;;;;4.13;3.00;;;;;;;23.06;38.30;99695.13;5106036;28;20318;-69
2022/08/10 23:23:24;;;;;;;5.32;3.22;;;;;;;23.05;38.39;99694.28;5105838;28;20258;-70
2022/08/10 23:25:54;;;;;;;4.43;3.00;;;;;;;23.07;38.34;99686.03;5106178;28;20064;-69
2022/08/10 23:28:23;;;;;;;8.35;4.13;;;;;;;23.04;38.47;99692.59;5105650;28;20109;-69
2022/08/10 23:30:52;;;;;;;7.43;5.82;;;;;;;23.06;38.36;99697.84;5105970;28;20056;-69
2022/08/10 23:33:26;;;;;;;6.65;4.53;;;;;;;23.02;38.46;99696.44;5087657;28;20101;-69
2022/08/10 23:35:56;;;;;;;;;;;;;;;22.79;39.03;99687.13;5106276;28;20253;-69
2022/08/10 23:38:26;;;;;;;5.53;3.70;;;;;;;22.93;38.53;99702.78;5105885;28;19916;-69
2022/08/10 23:40:57;;;;;;;4.03;3.15;;;;;;;22.97;38.54;99696.06;5105619;28;20048;-69
2022/08/10 23:43:28;;;;;;;3.83;3.00;;;;;;;22.87;38.62;99674.53;5105948;28;20093;-68
2022/08/10 23:45:59;;;;;;;5.57;3.35;;;;;;;23.00;38.55;99698.47;5105199;28;20052;-68
2022/08/10 23:48:30;;;;;;;5.25;3.17;;;;;;;22.91;38.68;99696.69;5105571;28;20056;-68
2022/08/10 23:51:02;;;;;;;6.90;3.38;;;;;;;22.93;38.56;99692.81;5105525;28;20051;-68
2022/08/10 23:53:32;;;;;;;5.07;3.10;;;;;;;22.91;38.68;99692.13;5105510;28;20270;-68
2022/08/10 23:56:07;;;;;;;4.50;3.40;;;;;;;22.84;39.11;99682.09;5105560;28;20056;-68
2022/08/10 23:58:39;;;;;;;5.35;3.13;;;;;;;22.48;38.79;99644.25;5105254;28;20097;-68
